Terminal Aerodrome Forecast
Issued by NWS Wilmington, OH

Current Version | Previous Version | Text Only | Print | Product List | Glossary Off
Versions: 1 2 3 4 5 6 7 8 9 10 11 12 13 14 15 16 17 18 19

000
FTUS41 KILN 301741
TAFCMH
TAF
KCMH 301741Z 3018/3118 28008G16KT P6SM FEW050 FEW200
     FM302300 26004KT P6SM SKC
     FM311500 28009KT P6SM FEW050=

USA.gov is the U.S. government's official web portal to all federal, state and local government web resources and services.